LVKFQ SADF-SBFL
Flight info
| Callsign | LVKFQ |
|---|---|
| Flight time | 1h 30m |
| Altitude | 37000 |
| Route | 05DORVO/05 DORVO UN857 ITBEB UM540 DADMO |
| Aircraft | CL60/M-SBDE1E2E3FGHIJ4J5J7M3RWXYZ/LB1V1D1 |
Departure
| Time | 2026-05-05 00:19 |
|---|---|
| Airport | San Fernando Airport (SADF) |
Arrival
| Time | 2026-05-05 01:50 |
|---|---|
| Airport | Hercílio Luz International Airport (SBFL) |
| Time | Latitude | Longitude | Altitude | Speed | Heading |
|---|---|---|---|---|---|
| 2026-05-04 23:57 | -34.45896 | -58.59195 | 18 ft | 0 kts | 153° |
| 2026-05-05 00:15 | -34.45903 | -58.59200 | 18 ft | 3 kts | 252° |
| 2026-05-05 00:15 | -34.45887 | -58.59240 | 18 ft | 2 kts | 319° |
| 2026-05-05 00:15 | -34.45888 | -58.59275 | 18 ft | 6 kts | 242° |
| 2026-05-05 00:16 | -34.45918 | -58.59343 | 18 ft | 11 kts | 243° |
| 2026-05-05 00:16 | -34.45961 | -58.59445 | 18 ft | 15 kts | 242° |
| 2026-05-05 00:16 | -34.46005 | -58.59546 | 18 ft | 8 kts | 243° |
| 2026-05-05 00:16 | -34.46026 | -58.59599 | 18 ft | 2 kts | 248° |
| 2026-05-05 00:18 | -34.46028 | -58.59604 | 18 ft | 3 kts | 249° |
| 2026-05-05 00:18 | -34.46021 | -58.59654 | 18 ft | 8 kts | 313° |
| 2026-05-05 00:18 | -34.45983 | -58.59692 | 18 ft | 5 kts | 342° |
| 2026-05-05 00:19 | -34.45955 | -58.59673 | 18 ft | 8 kts | 44° |
| 2026-05-05 00:19 | -34.45673 | -58.59343 | 18 ft | 107 kts | 44° |
| 2026-05-05 00:19 | -34.44941 | -58.58484 | 164 ft | 173 kts | 44° |
| 2026-05-05 00:19 | -34.44057 | -58.57465 | 1143 ft | 185 kts | 43° |
| 2026-05-05 00:20 | -34.43135 | -58.56338 | 2132 ft | 207 kts | 44° |
| 2026-05-05 00:20 | -34.42075 | -58.54988 | 2991 ft | 236 kts | 45° |
| 2026-05-05 00:20 | -34.41199 | -58.53244 | 4186 ft | 254 kts | 71° |
| 2026-05-05 00:20 | -34.40937 | -58.51144 | 5425 ft | 265 kts | 88° |
| 2026-05-05 00:21 | -34.41186 | -58.48922 | 6673 ft | 275 kts | 106° |
| 2026-05-05 00:21 | -34.41844 | -58.46727 | 7721 ft | 290 kts | 111° |
| 2026-05-05 00:21 | -34.42591 | -58.44403 | 8808 ft | 302 kts | 111° |
| 2026-05-05 00:21 | -34.43348 | -58.42034 | 9911 ft | 309 kts | 112° |
| 2026-05-05 00:22 | -34.44126 | -58.39596 | 10959 ft | 317 kts | 113° |
| 2026-05-05 00:22 | -34.44926 | -58.37088 | 11922 ft | 327 kts | 114° |
| 2026-05-05 00:22 | -34.45746 | -58.34513 | 12903 ft | 335 kts | 114° |
| 2026-05-05 00:22 | -34.46585 | -58.31874 | 13842 ft | 342 kts | 115° |
| 2026-05-05 00:23 | -34.47439 | -58.29184 | 14803 ft | 347 kts | 114° |
| 2026-05-05 00:23 | -34.48318 | -58.26412 | 15749 ft | 353 kts | 115° |
| 2026-05-05 00:23 | -34.49198 | -58.23631 | 16620 ft | 358 kts | 115° |
| 2026-05-05 00:23 | -34.50085 | -58.20826 | 17490 ft | 363 kts | 115° |
| 2026-05-05 00:24 | -34.50983 | -58.17983 | 18339 ft | 367 kts | 115° |
| 2026-05-05 00:24 | -34.51896 | -58.15086 | 19142 ft | 373 kts | 115° |
| 2026-05-05 00:24 | -34.52830 | -58.12123 | 19879 ft | 378 kts | 115° |
| 2026-05-05 00:24 | -34.53772 | -58.09131 | 20454 ft | 390 kts | 115° |
| 2026-05-05 00:25 | -34.54767 | -58.05981 | 20666 ft | 412 kts | 115° |
| 2026-05-05 00:25 | -34.55824 | -58.02618 | 21084 ft | 426 kts | 114° |
| 2026-05-05 00:25 | -34.56875 | -57.99264 | 21656 ft | 434 kts | 114° |
| 2026-05-05 00:25 | -34.57948 | -57.95834 | 22294 ft | 439 kts | 114° |
| 2026-05-05 00:26 | -34.59029 | -57.92372 | 22946 ft | 442 kts | 114° |
| 2026-05-05 00:26 | -34.60119 | -57.88879 | 23603 ft | 447 kts | 114° |
| 2026-05-05 00:26 | -34.61229 | -57.85317 | 24258 ft | 451 kts | 114° |
| 2026-05-05 00:26 | -34.62339 | -57.81750 | 24911 ft | 455 kts | 114° |
| 2026-05-05 00:27 | -34.63447 | -57.78187 | 25574 ft | 458 kts | 114° |
| 2026-05-05 00:27 | -34.64566 | -57.74584 | 26173 ft | 462 kts | 114° |
| 2026-05-05 00:27 | -34.65718 | -57.70871 | 26735 ft | 466 kts | 114° |
| 2026-05-05 00:27 | -34.66855 | -57.67202 | 27282 ft | 470 kts | 114° |
| 2026-05-05 00:28 | -34.68009 | -57.63470 | 27827 ft | 474 kts | 114° |
| 2026-05-05 00:28 | -34.69070 | -57.59670 | 28341 ft | 480 kts | 107° |
| 2026-05-05 00:28 | -34.69532 | -57.55641 | 28851 ft | 486 kts | 93° |
| 2026-05-05 00:28 | -34.69244 | -57.51573 | 29296 ft | 491 kts | 78° |
| 2026-05-05 00:29 | -34.68180 | -57.47641 | 29700 ft | 492 kts | 63° |
| 2026-05-05 00:29 | -34.66346 | -57.44070 | 30113 ft | 490 kts | 49° |
| 2026-05-05 00:29 | -34.64169 | -57.40885 | 30447 ft | 494 kts | 47° |
| 2026-05-05 00:29 | -34.61955 | -57.37680 | 30851 ft | 497 kts | 47° |
| 2026-05-05 00:30 | -34.59699 | -57.34411 | 31276 ft | 499 kts | 46° |
| 2026-05-05 00:30 | -34.57422 | -57.31115 | 31659 ft | 501 kts | 46° |
| 2026-05-05 00:30 | -34.55123 | -57.27789 | 31994 ft | 504 kts | 46° |
| 2026-05-05 00:30 | -34.52822 | -57.24464 | 32292 ft | 507 kts | 46° |
| 2026-05-05 00:31 | -34.51033 | -57.21881 | 32534 ft | 509 kts | 46° |
| 2026-05-05 00:31 | -34.48739 | -57.18571 | 32834 ft | 511 kts | 46° |
| 2026-05-05 00:31 | -34.46385 | -57.15178 | 33099 ft | 513 kts | 46° |
| 2026-05-05 00:31 | -34.44058 | -57.11827 | 33359 ft | 516 kts | 46° |
| 2026-05-05 00:32 | -34.41743 | -57.08496 | 33569 ft | 518 kts | 46° |
| 2026-05-05 00:32 | -34.39382 | -57.05103 | 33828 ft | 519 kts | 46° |
| 2026-05-05 00:32 | -34.37043 | -57.01743 | 34157 ft | 519 kts | 46° |
| 2026-05-05 00:32 | -34.34693 | -56.98371 | 34544 ft | 517 kts | 46° |
| 2026-05-05 00:33 | -34.32358 | -56.95023 | 34923 ft | 516 kts | 46° |
| 2026-05-05 00:33 | -34.30030 | -56.91690 | 35278 ft | 516 kts | 46° |
| 2026-05-05 00:33 | -34.27690 | -56.88341 | 35628 ft | 515 kts | 46° |
| 2026-05-05 00:33 | -34.25377 | -56.85036 | 35980 ft | 514 kts | 46° |
| 2026-05-05 00:34 | -34.23073 | -56.81750 | 36288 ft | 514 kts | 46° |
| 2026-05-05 00:34 | -34.20763 | -56.78460 | 36579 ft | 513 kts | 46° |
| 2026-05-05 00:34 | -34.18410 | -56.75111 | 36847 ft | 514 kts | 46° |
| 2026-05-05 00:34 | -34.16061 | -56.71772 | 36949 ft | 517 kts | 46° |
| 2026-05-05 00:35 | -34.13723 | -56.68452 | 36944 ft | 520 kts | 46° |
| 2026-05-05 00:35 | -34.09029 | -56.61792 | 36949 ft | 518 kts | 46° |
| 2026-05-05 00:36 | -34.04379 | -56.55207 | 36952 ft | 516 kts | 46° |
| 2026-05-05 00:36 | -33.99707 | -56.48603 | 36953 ft | 515 kts | 46° |
| 2026-05-05 00:37 | -33.94999 | -56.41962 | 36956 ft | 515 kts | 46° |
| 2026-05-05 00:37 | -33.90359 | -56.35429 | 36958 ft | 515 kts | 46° |
| 2026-05-05 00:38 | -33.85667 | -56.28858 | 36961 ft | 515 kts | 46° |
| 2026-05-05 00:38 | -33.80952 | -56.22286 | 36959 ft | 518 kts | 45° |
| 2026-05-05 00:39 | -33.76170 | -56.15604 | 36965 ft | 527 kts | 46° |
| 2026-05-05 00:39 | -33.71333 | -56.08840 | 36967 ft | 533 kts | 46° |
| 2026-05-05 00:40 | -33.66423 | -56.01983 | 36967 ft | 535 kts | 46° |
| 2026-05-05 00:40 | -33.61536 | -55.95171 | 36970 ft | 535 kts | 46° |
| 2026-05-05 00:41 | -33.56651 | -55.88376 | 36971 ft | 534 kts | 46° |
| 2026-05-05 00:41 | -33.51763 | -55.81591 | 36971 ft | 536 kts | 46° |
| 2026-05-05 00:42 | -33.46865 | -55.74804 | 36975 ft | 539 kts | 46° |
| 2026-05-05 00:42 | -33.41960 | -55.68020 | 36974 ft | 540 kts | 46° |
| 2026-05-05 00:43 | -33.37026 | -55.61209 | 36977 ft | 540 kts | 46° |
| 2026-05-05 00:43 | -33.32111 | -55.54437 | 36979 ft | 540 kts | 46° |
| 2026-05-05 00:44 | -33.27156 | -55.47623 | 36980 ft | 540 kts | 46° |
| 2026-05-05 00:44 | -33.22212 | -55.40835 | 36980 ft | 540 kts | 46° |
| 2026-05-05 00:45 | -33.17262 | -55.34054 | 36980 ft | 540 kts | 46° |
| 2026-05-05 00:45 | -33.12264 | -55.27220 | 36985 ft | 540 kts | 46° |
| 2026-05-05 00:46 | -33.07258 | -55.20387 | 36985 ft | 540 kts | 46° |
| 2026-05-05 00:46 | -33.02272 | -55.13594 | 36985 ft | 540 kts | 46° |
| 2026-05-05 00:47 | -32.97319 | -55.06860 | 36985 ft | 540 kts | 46° |
| 2026-05-05 00:47 | -32.92329 | -55.00086 | 36988 ft | 540 kts | 46° |
| 2026-05-05 00:48 | -32.87298 | -54.93270 | 36983 ft | 540 kts | 46° |
| 2026-05-05 00:48 | -32.82294 | -54.86503 | 36992 ft | 540 kts | 46° |
| 2026-05-05 00:49 | -32.77324 | -54.79795 | 36996 ft | 541 kts | 46° |
| 2026-05-05 00:49 | -32.72349 | -54.73093 | 36995 ft | 541 kts | 46° |
| 2026-05-05 00:50 | -32.67354 | -54.66375 | 36995 ft | 542 kts | 46° |
| 2026-05-05 00:50 | -32.62335 | -54.59638 | 36986 ft | 542 kts | 46° |
| 2026-05-05 00:51 | -32.57350 | -54.52959 | 36990 ft | 542 kts | 46° |
| 2026-05-05 00:51 | -32.52358 | -54.46282 | 37000 ft | 542 kts | 46° |
| 2026-05-05 00:52 | -32.47349 | -54.39595 | 36995 ft | 542 kts | 46° |
| 2026-05-05 00:52 | -32.42328 | -54.32904 | 36991 ft | 542 kts | 46° |
| 2026-05-05 00:53 | -32.37309 | -54.26229 | 36996 ft | 541 kts | 46° |
| 2026-05-05 00:53 | -32.32336 | -54.19580 | 36996 ft | 542 kts | 46° |
| 2026-05-05 00:54 | -32.27403 | -54.12885 | 36997 ft | 542 kts | 47° |
| 2026-05-05 00:54 | -32.22455 | -54.06183 | 37003 ft | 542 kts | 46° |
| 2026-05-05 00:55 | -32.17484 | -53.99463 | 37009 ft | 541 kts | 46° |
| 2026-05-05 00:55 | -32.12541 | -53.92795 | 37008 ft | 541 kts | 46° |
| 2026-05-05 00:56 | -32.07569 | -53.86098 | 37004 ft | 541 kts | 47° |
| 2026-05-05 00:56 | -32.02554 | -53.79363 | 37003 ft | 541 kts | 47° |
| 2026-05-05 00:57 | -31.97521 | -53.72620 | 37009 ft | 541 kts | 46° |
| 2026-05-05 00:57 | -31.92524 | -53.65936 | 37008 ft | 542 kts | 46° |
| 2026-05-05 00:58 | -31.87442 | -53.59151 | 37011 ft | 542 kts | 47° |
| 2026-05-05 00:58 | -31.82390 | -53.52419 | 37011 ft | 542 kts | 47° |
| 2026-05-05 00:59 | -31.77401 | -53.45782 | 37011 ft | 542 kts | 47° |
| 2026-05-05 00:59 | -31.72335 | -53.39055 | 37010 ft | 543 kts | 47° |
| 2026-05-05 01:00 | -31.67278 | -53.32351 | 37014 ft | 542 kts | 46° |
| 2026-05-05 01:00 | -31.62265 | -53.25720 | 37012 ft | 542 kts | 46° |
| 2026-05-05 01:01 | -31.57385 | -53.19274 | 37009 ft | 543 kts | 46° |
| 2026-05-05 01:01 | -31.52329 | -53.12608 | 37005 ft | 543 kts | 46° |
| 2026-05-05 01:02 | -31.47301 | -53.05990 | 37005 ft | 543 kts | 46° |
| 2026-05-05 01:02 | -31.42257 | -52.99363 | 37012 ft | 543 kts | 46° |
| 2026-05-05 01:03 | -31.37165 | -52.92683 | 37017 ft | 543 kts | 46° |
| 2026-05-05 01:03 | -31.32128 | -52.86090 | 37012 ft | 543 kts | 46° |
| 2026-05-05 01:04 | -31.27067 | -52.79466 | 37023 ft | 543 kts | 46° |
| 2026-05-05 01:04 | -31.19467 | -52.69545 | 37020 ft | 543 kts | 46° |
| 2026-05-05 01:05 | -31.14366 | -52.62907 | 37017 ft | 543 kts | 46° |
| 2026-05-05 01:05 | -31.09257 | -52.56269 | 37016 ft | 544 kts | 46° |
| 2026-05-05 01:06 | -31.04164 | -52.49666 | 37015 ft | 544 kts | 47° |
| 2026-05-05 01:06 | -30.99122 | -52.43138 | 37012 ft | 543 kts | 47° |
| 2026-05-05 01:07 | -30.94031 | -52.36559 | 37013 ft | 543 kts | 47° |
| 2026-05-05 01:07 | -30.88917 | -52.29974 | 37017 ft | 542 kts | 46° |
| 2026-05-05 01:08 | -30.83631 | -52.23362 | 37021 ft | 542 kts | 45° |
| 2026-05-05 01:08 | -30.78396 | -52.16834 | 37016 ft | 542 kts | 45° |
| 2026-05-05 01:09 | -30.73206 | -52.10371 | 37025 ft | 542 kts | 45° |
| 2026-05-05 01:09 | -30.68011 | -52.03912 | 37028 ft | 542 kts | 45° |
| 2026-05-05 01:10 | -30.62839 | -51.97487 | 37041 ft | 542 kts | 45° |
| 2026-05-05 01:10 | -30.57630 | -51.91028 | 37038 ft | 542 kts | 46° |
| 2026-05-05 01:11 | -30.52453 | -51.84618 | 37041 ft | 541 kts | 45° |
| 2026-05-05 01:11 | -30.47263 | -51.78204 | 37039 ft | 542 kts | 46° |
| 2026-05-05 01:12 | -30.42160 | -51.71739 | 37029 ft | 542 kts | 47° |
| 2026-05-05 01:12 | -30.37131 | -51.65171 | 37027 ft | 542 kts | 47° |
| 2026-05-05 01:13 | -30.32092 | -51.58604 | 37024 ft | 542 kts | 48° |
| 2026-05-05 01:13 | -30.27019 | -51.52004 | 37031 ft | 542 kts | 48° |
| 2026-05-05 01:14 | -30.21999 | -51.45484 | 37035 ft | 543 kts | 47° |
| 2026-05-05 01:14 | -30.16935 | -51.38919 | 37025 ft | 543 kts | 48° |
| 2026-05-05 01:15 | -30.11826 | -51.32305 | 37038 ft | 543 kts | 47° |
| 2026-05-05 01:15 | -30.06765 | -51.25767 | 37032 ft | 543 kts | 47° |
| 2026-05-05 01:16 | -30.01654 | -51.19174 | 37030 ft | 544 kts | 47° |
| 2026-05-05 01:16 | -29.96522 | -51.12577 | 37038 ft | 544 kts | 47° |
| 2026-05-05 01:17 | -29.91414 | -51.06031 | 37034 ft | 545 kts | 47° |
| 2026-05-05 01:17 | -29.86272 | -50.99455 | 37045 ft | 545 kts | 47° |
| 2026-05-05 01:18 | -29.81089 | -50.92835 | 37058 ft | 545 kts | 47° |
| 2026-05-05 01:18 | -29.75995 | -50.86342 | 37072 ft | 544 kts | 48° |
| 2026-05-05 01:19 | -29.71372 | -50.80452 | 37061 ft | 545 kts | 47° |
| 2026-05-05 01:19 | -29.66427 | -50.74170 | 37069 ft | 544 kts | 47° |
| 2026-05-05 01:20 | -29.61308 | -50.67674 | 37098 ft | 544 kts | 47° |
| 2026-05-05 01:20 | -29.56185 | -50.61184 | 37117 ft | 544 kts | 47° |
| 2026-05-05 01:21 | -29.50813 | -50.55091 | 37140 ft | 542 kts | 37° |
| 2026-05-05 01:21 | -29.44735 | -50.49840 | 37148 ft | 542 kts | 35° |
| 2026-05-05 01:22 | -29.38663 | -50.44627 | 37156 ft | 542 kts | 36° |
| 2026-05-05 01:22 | -29.32579 | -50.39412 | 37152 ft | 542 kts | 36° |
| 2026-05-05 01:23 | -29.26485 | -50.34195 | 37170 ft | 541 kts | 35° |
| 2026-05-05 01:23 | -29.20415 | -50.29006 | 37176 ft | 541 kts | 35° |
| 2026-05-05 01:24 | -29.14359 | -50.23837 | 37179 ft | 541 kts | 35° |
| 2026-05-05 01:24 | -29.08254 | -50.18633 | 37183 ft | 541 kts | 35° |
| 2026-05-05 01:25 | -29.02279 | -50.13547 | 37169 ft | 535 kts | 35° |
| 2026-05-05 01:25 | -28.96306 | -50.08469 | 37186 ft | 530 kts | 35° |
| 2026-05-05 01:26 | -28.90395 | -50.03453 | 37199 ft | 529 kts | 35° |
| 2026-05-05 01:26 | -28.84426 | -49.98394 | 37200 ft | 529 kts | 35° |
| 2026-05-05 01:27 | -28.78459 | -49.93344 | 37194 ft | 529 kts | 35° |
| 2026-05-05 01:27 | -28.72525 | -49.88330 | 37175 ft | 530 kts | 35° |
| 2026-05-05 01:28 | -28.66492 | -49.83237 | 37174 ft | 530 kts | 35° |
| 2026-05-05 01:28 | -28.60497 | -49.78182 | 36977 ft | 533 kts | 35° |
| 2026-05-05 01:29 | -28.57471 | -49.75632 | 36363 ft | 530 kts | 35° |
| 2026-05-05 01:29 | -28.54499 | -49.73130 | 35742 ft | 526 kts | 36° |
| 2026-05-05 01:29 | -28.51556 | -49.70653 | 35093 ft | 523 kts | 35° |
| 2026-05-05 01:29 | -28.48548 | -49.68125 | 34409 ft | 523 kts | 36° |
| 2026-05-05 01:30 | -28.45610 | -49.65658 | 33694 ft | 523 kts | 36° |
| 2026-05-05 01:30 | -28.42678 | -49.63198 | 33043 ft | 522 kts | 36° |
| 2026-05-05 01:30 | -28.39744 | -49.60738 | 32401 ft | 517 kts | 36° |
| 2026-05-05 01:30 | -28.36816 | -49.58285 | 31770 ft | 511 kts | 36° |
| 2026-05-05 01:31 | -28.33904 | -49.55847 | 31141 ft | 505 kts | 36° |
| 2026-05-05 01:31 | -28.31099 | -49.53500 | 30542 ft | 499 kts | 37° |
| 2026-05-05 01:31 | -28.28253 | -49.51121 | 29933 ft | 494 kts | 36° |
| 2026-05-05 01:31 | -28.25730 | -49.49012 | 29393 ft | 489 kts | 37° |
| 2026-05-05 01:32 | -28.23676 | -49.47297 | 28950 ft | 486 kts | 37° |
| 2026-05-05 01:32 | -28.20937 | -49.45011 | 28261 ft | 483 kts | 37° |
| 2026-05-05 01:32 | -28.18212 | -49.42738 | 27638 ft | 479 kts | 36° |
| 2026-05-05 01:32 | -28.15492 | -49.40471 | 26995 ft | 474 kts | 36° |
| 2026-05-05 01:33 | -28.12808 | -49.38235 | 26355 ft | 470 kts | 36° |
| 2026-05-05 01:33 | -28.10169 | -49.36037 | 25712 ft | 465 kts | 36° |
| 2026-05-05 01:33 | -28.07498 | -49.33825 | 25101 ft | 459 kts | 35° |
| 2026-05-05 01:33 | -28.04935 | -49.31722 | 24485 ft | 455 kts | 35° |
| 2026-05-05 01:34 | -28.02368 | -49.29618 | 23885 ft | 449 kts | 35° |
| 2026-05-05 01:34 | -27.99850 | -49.27554 | 23285 ft | 444 kts | 34° |
| 2026-05-05 01:34 | -27.97357 | -49.25512 | 22688 ft | 438 kts | 34° |
| 2026-05-05 01:34 | -27.94895 | -49.23497 | 22105 ft | 432 kts | 34° |
| 2026-05-05 01:35 | -27.92460 | -49.21505 | 21548 ft | 426 kts | 34° |
| 2026-05-05 01:35 | -27.90088 | -49.19566 | 20984 ft | 420 kts | 34° |
| 2026-05-05 01:35 | -27.87741 | -49.17647 | 20434 ft | 414 kts | 34° |
| 2026-05-05 01:35 | -27.85396 | -49.15732 | 19890 ft | 408 kts | 34° |
| 2026-05-05 01:36 | -27.83119 | -49.13786 | 19344 ft | 404 kts | 37° |
| 2026-05-05 01:36 | -27.80948 | -49.11800 | 18808 ft | 403 kts | 37° |
| 2026-05-05 01:36 | -27.78757 | -49.09796 | 18278 ft | 401 kts | 37° |
| 2026-05-05 01:36 | -27.76580 | -49.07804 | 17732 ft | 399 kts | 37° |
| 2026-05-05 01:37 | -27.74434 | -49.05842 | 17210 ft | 395 kts | 37° |
| 2026-05-05 01:37 | -27.72291 | -49.03884 | 16682 ft | 390 kts | 37° |
| 2026-05-05 01:37 | -27.70195 | -49.01969 | 16158 ft | 386 kts | 37° |
| 2026-05-05 01:37 | -27.68142 | -49.00087 | 15640 ft | 381 kts | 38° |
| 2026-05-05 01:38 | -27.66330 | -48.97912 | 15102 ft | 380 kts | 53° |
| 2026-05-05 01:38 | -27.65107 | -48.95300 | 14548 ft | 377 kts | 70° |
| 2026-05-05 01:38 | -27.64559 | -48.92433 | 13978 ft | 373 kts | 86° |
| 2026-05-05 01:38 | -27.64684 | -48.89555 | 13386 ft | 369 kts | 99° |
| 2026-05-05 01:39 | -27.65097 | -48.86727 | 12948 ft | 361 kts | 100° |
| 2026-05-05 01:39 | -27.65493 | -48.83987 | 12471 ft | 357 kts | 100° |
| 2026-05-05 01:39 | -27.65890 | -48.81224 | 12007 ft | 353 kts | 100° |
| 2026-05-05 01:39 | -27.66284 | -48.78512 | 11544 ft | 347 kts | 101° |
| 2026-05-05 01:40 | -27.67059 | -48.75968 | 11083 ft | 340 kts | 120° |
| 2026-05-05 01:40 | -27.68258 | -48.73719 | 10616 ft | 335 kts | 123° |
| 2026-05-05 01:40 | -27.69487 | -48.71460 | 9998 ft | 336 kts | 123° |
| 2026-05-05 01:40 | -27.70672 | -48.69272 | 9645 ft | 328 kts | 123° |
| 2026-05-05 01:41 | -27.71872 | -48.67054 | 9182 ft | 325 kts | 123° |
| 2026-05-05 01:41 | -27.73046 | -48.64883 | 8753 ft | 320 kts | 123° |
| 2026-05-05 01:41 | -27.74193 | -48.62760 | 8323 ft | 317 kts | 123° |
| 2026-05-05 01:41 | -27.75326 | -48.60663 | 7914 ft | 312 kts | 123° |
| 2026-05-05 01:42 | -27.76451 | -48.58578 | 7497 ft | 308 kts | 123° |
| 2026-05-05 01:42 | -27.77552 | -48.56538 | 7087 ft | 304 kts | 123° |
| 2026-05-05 01:42 | -27.78651 | -48.54499 | 6683 ft | 300 kts | 123° |
| 2026-05-05 01:42 | -27.79717 | -48.52520 | 6289 ft | 296 kts | 123° |
| 2026-05-05 01:43 | -27.80784 | -48.50541 | 5894 ft | 292 kts | 123° |
| 2026-05-05 01:43 | -27.81830 | -48.48596 | 5473 ft | 284 kts | 122° |
| 2026-05-05 01:43 | -27.82664 | -48.46650 | 5099 ft | 275 kts | 106° |
| 2026-05-05 01:43 | -27.82882 | -48.44552 | 4624 ft | 267 kts | 84° |
| 2026-05-05 01:44 | -27.82447 | -48.42563 | 4211 ft | 256 kts | 63° |
| 2026-05-05 01:44 | -27.81497 | -48.40913 | 3647 ft | 252 kts | 44° |
| 2026-05-05 01:44 | -27.80166 | -48.39705 | 3304 ft | 237 kts | 29° |
| 2026-05-05 01:44 | -27.78785 | -48.38803 | 3135 ft | 212 kts | 22° |
| 2026-05-05 01:45 | -27.77466 | -48.38392 | 3026 ft | 187 kts | 3° |
| 2026-05-05 01:45 | -27.76235 | -48.38607 | 2992 ft | 174 kts | 339° |
| 2026-05-05 01:45 | -27.75237 | -48.39314 | 2969 ft | 164 kts | 319° |
| 2026-05-05 01:45 | -27.74557 | -48.40299 | 2850 ft | 152 kts | 306° |
| 2026-05-05 01:46 | -27.74024 | -48.41294 | 2649 ft | 145 kts | 306° |
| 2026-05-05 01:46 | -27.73505 | -48.42256 | 2196 ft | 145 kts | 307° |
| 2026-05-05 01:46 | -27.73009 | -48.43179 | 2067 ft | 134 kts | 307° |
| 2026-05-05 01:46 | -27.72491 | -48.44130 | 1813 ft | 146 kts | 307° |
| 2026-05-05 01:47 | -27.71958 | -48.45115 | 1640 ft | 144 kts | 307° |
| 2026-05-05 01:47 | -27.71446 | -48.46068 | 1437 ft | 141 kts | 307° |
| 2026-05-05 01:47 | -27.70945 | -48.47001 | 1252 ft | 136 kts | 306° |
| 2026-05-05 01:47 | -27.70459 | -48.47909 | 1065 ft | 131 kts | 306° |
| 2026-05-05 01:48 | -27.69995 | -48.48773 | 892 ft | 128 kts | 306° |
| 2026-05-05 01:48 | -27.69532 | -48.49632 | 714 ft | 128 kts | 306° |
| 2026-05-05 01:48 | -27.69062 | -48.50507 | 551 ft | 127 kts | 305° |
| 2026-05-05 01:48 | -27.68606 | -48.51356 | 389 ft | 127 kts | 304° |
| 2026-05-05 01:49 | -27.68141 | -48.52227 | 234 ft | 127 kts | 306° |
| 2026-05-05 01:49 | -27.67682 | -48.53069 | 82 ft | 126 kts | 304° |
| 2026-05-05 01:49 | -27.67254 | -48.53854 | 31 ft | 101 kts | 301° |
| 2026-05-05 01:49 | -27.66986 | -48.54355 | 31 ft | 54 kts | 302° |
| 2026-05-05 01:50 | -27.66833 | -48.54640 | 31 ft | 30 kts | 303° |
| 2026-05-05 01:50 | -27.66746 | -48.54800 | 32 ft | 15 kts | 301° |
| 2026-05-05 01:50 | -27.66677 | -48.54818 | 32 ft | 13 kts | 31° |
| 2026-05-05 01:50 | -27.66628 | -48.54784 | 32 ft | 5 kts | 31° |
| 2026-05-05 01:51 | -27.66576 | -48.54750 | 32 ft | 11 kts | 30° |
| 2026-05-05 01:51 | -27.66523 | -48.54718 | 32 ft | 6 kts | 12° |
| 2026-05-05 01:51 | -27.66482 | -48.54761 | 32 ft | 11 kts | 299° |
| 2026-05-05 01:51 | -27.66423 | -48.54782 | 33 ft | 5 kts | 360° |
| 2026-05-05 01:52 | -27.66415 | -48.54782 | 33 ft | 0 kts | 360° |